sensor_id;sensor_type;location;lat;lon;timestamp;P1;durP1;ratioP1;P2;durP2;ratioP2
21258;SDS011;10787;53.364;-1.480;2022-12-18T00:01:21;18.83;;;9.83;;
21258;SDS011;10787;53.364;-1.480;2022-12-18T00:03:47;20.00;;;10.73;;
21258;SDS011;10787;53.364;-1.480;2022-12-18T00:06:14;19.07;;;10.10;;
21258;SDS011;10787;53.364;-1.480;2022-12-18T00:08:40;16.00;;;9.00;;
21258;SDS011;10787;53.364;-1.480;2022-12-18T00:11:08;18.17;;;9.67;;
21258;SDS011;10787;53.364;-1.480;2022-12-18T00:13:37;16.07;;;8.93;;
21258;SDS011;10787;53.364;-1.480;2022-12-18T00:16:04;18.10;;;8.37;;
21258;SDS011;10787;53.364;-1.480;2022-12-18T00:18:31;15.80;;;7.73;;
21258;SDS011;10787;53.364;-1.480;2022-12-18T00:20:59;15.37;;;8.03;;
21258;SDS011;10787;53.364;-1.480;2022-12-18T00:23:30;13.13;;;7.53;;
21258;SDS011;10787;53.364;-1.480;2022-12-18T00:26:00;17.60;;;8.57;;
21258;SDS011;10787;53.364;-1.480;2022-12-18T00:28:27;13.53;;;8.00;;
21258;SDS011;10787;53.364;-1.480;2022-12-18T00:31:03;15.70;;;7.80;;
21258;SDS011;10787;53.364;-1.480;2022-12-18T00:33:31;13.97;;;7.80;;
21258;SDS011;10787;53.364;-1.480;2022-12-18T00:36:00;13.70;;;7.83;;
21258;SDS011;10787;53.364;-1.480;2022-12-18T00:38:27;13.63;;;8.00;;
21258;SDS011;10787;53.364;-1.480;2022-12-18T00:40:53;15.43;;;8.30;;
21258;SDS011;10787;53.364;-1.480;2022-12-18T00:43:19;17.93;;;9.10;;
21258;SDS011;10787;53.364;-1.480;2022-12-18T00:45:45;18.37;;;9.40;;
21258;SDS011;10787;53.364;-1.480;2022-12-18T00:48:11;18.33;;;8.93;;
21258;SDS011;10787;53.364;-1.480;2022-12-18T00:50:37;15.43;;;8.70;;
21258;SDS011;10787;53.364;-1.480;2022-12-18T00:53:03;16.90;;;8.57;;
21258;SDS011;10787;53.364;-1.480;2022-12-18T00:55:29;18.63;;;9.07;;
21258;SDS011;10787;53.364;-1.480;2022-12-18T00:57:55;17.07;;;9.50;;
21258;SDS011;10787;53.364;-1.480;2022-12-18T01:00:21;18.17;;;10.20;;
21258;SDS011;10787;53.364;-1.480;2022-12-18T01:02:47;18.83;;;9.00;;
21258;SDS011;10787;53.364;-1.480;2022-12-18T01:05:13;18.00;;;9.60;;
21258;SDS011;10787;53.364;-1.480;2022-12-18T01:07:40;19.77;;;10.00;;
21258;SDS011;10787;53.364;-1.480;2022-12-18T01:10:06;19.70;;;9.90;;
21258;SDS011;10787;53.364;-1.480;2022-12-18T01:12:34;18.90;;;10.30;;
21258;SDS011;10787;53.364;-1.480;2022-12-18T01:14:59;18.63;;;10.60;;
21258;SDS011;10787;53.364;-1.480;2022-12-18T01:17:25;19.83;;;10.33;;
21258;SDS011;10787;53.364;-1.480;2022-12-18T01:19:51;18.50;;;10.67;;
21258;SDS011;10787;53.364;-1.480;2022-12-18T01:22:17;18.73;;;10.20;;
21258;SDS011;10787;53.364;-1.480;2022-12-18T01:24:42;18.53;;;10.33;;
21258;SDS011;10787;53.364;-1.480;2022-12-18T01:27:08;18.73;;;10.80;;
21258;SDS011;10787;53.364;-1.480;2022-12-18T01:29:34;19.47;;;10.60;;
21258;SDS011;10787;53.364;-1.480;2022-12-18T01:32:00;21.60;;;10.80;;
21258;SDS011;10787;53.364;-1.480;2022-12-18T01:34:25;25.57;;;11.43;;
21258;SDS011;10787;53.364;-1.480;2022-12-18T01:36:52;23.80;;;12.73;;
21258;SDS011;10787;53.364;-1.480;2022-12-18T01:39:18;21.73;;;11.93;;
21258;SDS011;10787;53.364;-1.480;2022-12-18T01:41:44;21.70;;;12.23;;
21258;SDS011;10787;53.364;-1.480;2022-12-18T01:47:15;23.47;;;12.17;;
21258;SDS011;10787;53.364;-1.480;2022-12-18T01:49:45;22.20;;;12.50;;
21258;SDS011;10787;53.364;-1.480;2022-12-18T01:52:11;23.73;;;12.23;;
21258;SDS011;10787;53.364;-1.480;2022-12-18T01:54:38;20.93;;;11.87;;
21258;SDS011;10787;53.364;-1.480;2022-12-18T01:57:04;23.37;;;12.60;;
21258;SDS011;10787;53.364;-1.480;2022-12-18T01:59:31;21.43;;;12.13;;
21258;SDS011;10787;53.364;-1.480;2022-12-18T02:01:59;21.70;;;12.07;;
21258;SDS011;10787;53.364;-1.480;2022-12-18T02:04:25;24.30;;;12.93;;
21258;SDS011;10787;53.364;-1.480;2022-12-18T02:06:57;25.80;;;12.60;;
21258;SDS011;10787;53.364;-1.480;2022-12-18T02:15:18;27.70;;;13.77;;
21258;SDS011;10787;53.364;-1.480;2022-12-18T02:18:00;28.20;;;13.73;;
21258;SDS011;10787;53.364;-1.480;2022-12-18T02:20:36;27.37;;;13.80;;
21258;SDS011;10787;53.364;-1.480;2022-12-18T02:28:08;26.50;;;14.00;;
21258;SDS011;10787;53.364;-1.480;2022-12-18T02:30:37;26.63;;;15.03;;
21258;SDS011;10787;53.364;-1.480;2022-12-18T02:33:05;27.10;;;14.90;;
21258;SDS011;10787;53.364;-1.480;2022-12-18T02:35:35;28.40;;;15.37;;
21258;SDS011;10787;53.364;-1.480;2022-12-18T02:38:03;28.37;;;15.30;;
21258;SDS011;10787;53.364;-1.480;2022-12-18T02:40:30;29.30;;;15.87;;
21258;SDS011;10787;53.364;-1.480;2022-12-18T02:43:02;32.20;;;17.20;;
21258;SDS011;10787;53.364;-1.480;2022-12-18T02:45:53;34.73;;;18.73;;
21258;SDS011;10787;53.364;-1.480;2022-12-18T02:48:22;37.50;;;19.23;;
21258;SDS011;10787;53.364;-1.480;2022-12-18T02:51:39;39.73;;;19.57;;
21258;SDS011;10787;53.364;-1.480;2022-12-18T02:54:03;33.73;;;19.10;;
21258;SDS011;10787;53.364;-1.480;2022-12-18T02:56:38;39.37;;;19.70;;
21258;SDS011;10787;53.364;-1.480;2022-12-18T02:59:17;38.83;;;18.73;;
21258;SDS011;10787;53.364;-1.480;2022-12-18T03:04:40;37.57;;;19.47;;
21258;SDS011;10787;53.364;-1.480;2022-12-18T03:07:15;39.87;;;20.50;;
21258;SDS011;10787;53.364;-1.480;2022-12-18T03:09:47;37.60;;;19.80;;
21258;SDS011;10787;53.364;-1.480;2022-12-18T03:15:01;40.00;;;20.37;;
21258;SDS011;10787;53.364;-1.480;2022-12-18T03:17:37;37.43;;;19.90;;
21258;SDS011;10787;53.364;-1.480;2022-12-18T03:20:12;36.07;;;20.40;;
21258;SDS011;10787;53.364;-1.480;2022-12-18T03:22:40;40.20;;;20.67;;
21258;SDS011;10787;53.364;-1.480;2022-12-18T03:25:12;38.87;;;19.80;;
21258;SDS011;10787;53.364;-1.480;2022-12-18T03:27:41;38.03;;;20.27;;
21258;SDS011;10787;53.364;-1.480;2022-12-18T03:30:12;39.30;;;20.87;;
21258;SDS011;10787;53.364;-1.480;2022-12-18T03:33:01;37.20;;;19.50;;
21258;SDS011;10787;53.364;-1.480;2022-12-18T03:36:01;38.43;;;19.53;;
21258;SDS011;10787;53.364;-1.480;2022-12-18T03:38:28;37.40;;;19.97;;
21258;SDS011;10787;53.364;-1.480;2022-12-18T03:43:23;38.60;;;20.53;;
21258;SDS011;10787;53.364;-1.480;2022-12-18T03:46:54;41.03;;;21.13;;
21258;SDS011;10787;53.364;-1.480;2022-12-18T03:48:58;39.00;;;20.20;;
21258;SDS011;10787;53.364;-1.480;2022-12-18T03:51:45;42.83;;;21.63;;
21258;SDS011;10787;53.364;-1.480;2022-12-18T03:54:16;41.80;;;21.07;;
21258;SDS011;10787;53.364;-1.480;2022-12-18T03:56:44;41.47;;;21.03;;
21258;SDS011;10787;53.364;-1.480;2022-12-18T03:59:15;40.90;;;21.33;;
21258;SDS011;10787;53.364;-1.480;2022-12-18T04:01:43;41.17;;;21.87;;
21258;SDS011;10787;53.364;-1.480;2022-12-18T04:04:13;41.00;;;21.57;;
21258;SDS011;10787;53.364;-1.480;2022-12-18T04:06:42;49.27;;;21.00;;
21258;SDS011;10787;53.364;-1.480;2022-12-18T04:09:10;42.60;;;20.90;;
21258;SDS011;10787;53.364;-1.480;2022-12-18T04:11:36;38.57;;;20.07;;
21258;SDS011;10787;53.364;-1.480;2022-12-18T04:14:02;36.53;;;19.97;;
21258;SDS011;10787;53.364;-1.480;2022-12-18T04:16:29;40.33;;;20.57;;
21258;SDS011;10787;53.364;-1.480;2022-12-18T04:18:55;39.97;;;20.00;;
21258;SDS011;10787;53.364;-1.480;2022-12-18T04:21:21;38.67;;;19.87;;
21258;SDS011;10787;53.364;-1.480;2022-12-18T04:23:48;45.63;;;19.17;;
21258;SDS011;10787;53.364;-1.480;2022-12-18T04:26:14;34.80;;;18.80;;
21258;SDS011;10787;53.364;-1.480;2022-12-18T04:28:52;36.40;;;18.73;;
21258;SDS011;10787;53.364;-1.480;2022-12-18T04:31:18;38.93;;;18.63;;
21258;SDS011;10787;53.364;-1.480;2022-12-18T04:33:44;46.53;;;19.70;;
21258;SDS011;10787;53.364;-1.480;2022-12-18T04:36:10;61.13;;;19.73;;
21258;SDS011;10787;53.364;-1.480;2022-12-18T04:38:37;95.53;;;22.67;;
21258;SDS011;10787;53.364;-1.480;2022-12-18T04:41:03;36.50;;;19.83;;
21258;SDS011;10787;53.364;-1.480;2022-12-18T04:43:29;40.80;;;20.07;;
21258;SDS011;10787;53.364;-1.480;2022-12-18T04:46:01;40.43;;;20.23;;
21258;SDS011;10787;53.364;-1.480;2022-12-18T04:48:31;39.07;;;19.37;;
21258;SDS011;10787;53.364;-1.480;2022-12-18T04:50:57;42.17;;;19.40;;
21258;SDS011;10787;53.364;-1.480;2022-12-18T04:53:23;39.47;;;19.37;;
21258;SDS011;10787;53.364;-1.480;2022-12-18T04:55:49;35.20;;;18.63;;
21258;SDS011;10787;53.364;-1.480;2022-12-18T04:58:15;38.73;;;19.03;;
21258;SDS011;10787;53.364;-1.480;2022-12-18T05:00:41;39.90;;;18.73;;
21258;SDS011;10787;53.364;-1.480;2022-12-18T05:03:07;40.43;;;18.43;;
21258;SDS011;10787;53.364;-1.480;2022-12-18T05:05:34;36.67;;;18.50;;
21258;SDS011;10787;53.364;-1.480;2022-12-18T05:08:00;34.33;;;17.97;;
21258;SDS011;10787;53.364;-1.480;2022-12-18T05:10:26;36.50;;;18.10;;
21258;SDS011;10787;53.364;-1.480;2022-12-18T05:12:52;38.63;;;18.63;;
21258;SDS011;10787;53.364;-1.480;2022-12-18T05:15:30;37.63;;;17.97;;
21258;SDS011;10787;53.364;-1.480;2022-12-18T05:17:57;36.23;;;18.23;;
21258;SDS011;10787;53.364;-1.480;2022-12-18T05:20:24;35.77;;;18.37;;
21258;SDS011;10787;53.364;-1.480;2022-12-18T05:22:51;37.40;;;18.50;;
21258;SDS011;10787;53.364;-1.480;2022-12-18T05:25:17;41.10;;;19.47;;
21258;SDS011;10787;53.364;-1.480;2022-12-18T05:27:44;42.00;;;19.93;;
21258;SDS011;10787;53.364;-1.480;2022-12-18T05:30:10;41.53;;;19.97;;
21258;SDS011;10787;53.364;-1.480;2022-12-18T05:32:37;43.70;;;20.90;;
21258;SDS011;10787;53.364;-1.480;2022-12-18T05:35:03;47.47;;;20.30;;
21258;SDS011;10787;53.364;-1.480;2022-12-18T05:37:30;38.13;;;18.73;;
21258;SDS011;10787;53.364;-1.480;2022-12-18T05:39:56;44.33;;;20.13;;
21258;SDS011;10787;53.364;-1.480;2022-12-18T05:42:22;49.57;;;21.20;;
21258;SDS011;10787;53.364;-1.480;2022-12-18T05:44:48;46.17;;;21.57;;
21258;SDS011;10787;53.364;-1.480;2022-12-18T05:47:15;49.67;;;21.50;;
21258;SDS011;10787;53.364;-1.480;2022-12-18T05:49:41;47.00;;;21.63;;
21258;SDS011;10787;53.364;-1.480;2022-12-18T05:52:07;49.93;;;22.63;;
21258;SDS011;10787;53.364;-1.480;2022-12-18T05:54:33;52.23;;;22.53;;
21258;SDS011;10787;53.364;-1.480;2022-12-18T05:56:58;54.30;;;22.53;;
21258;SDS011;10787;53.364;-1.480;2022-12-18T05:59:26;86.80;;;24.90;;
21258;SDS011;10787;53.364;-1.480;2022-12-18T06:01:53;86.47;;;25.83;;
21258;SDS011;10787;53.364;-1.480;2022-12-18T06:04:18;61.43;;;23.83;;
21258;SDS011;10787;53.364;-1.480;2022-12-18T06:06:44;61.43;;;24.57;;
21258;SDS011;10787;53.364;-1.480;2022-12-18T06:09:10;64.40;;;24.90;;
21258;SDS011;10787;53.364;-1.480;2022-12-18T06:11:37;62.07;;;26.07;;
21258;SDS011;10787;53.364;-1.480;2022-12-18T06:14:04;62.80;;;26.13;;
21258;SDS011;10787;53.364;-1.480;2022-12-18T06:16:31;59.03;;;25.47;;
21258;SDS011;10787;53.364;-1.480;2022-12-18T06:18:58;64.60;;;25.93;;
21258;SDS011;10787;53.364;-1.480;2022-12-18T06:21:25;74.43;;;26.70;;
21258;SDS011;10787;53.364;-1.480;2022-12-18T06:23:51;65.97;;;26.40;;
21258;SDS011;10787;53.364;-1.480;2022-12-18T06:26:33;62.87;;;27.03;;
21258;SDS011;10787;53.364;-1.480;2022-12-18T06:28:59;61.27;;;26.13;;
21258;SDS011;10787;53.364;-1.480;2022-12-18T06:31:25;80.63;;;27.80;;
21258;SDS011;10787;53.364;-1.480;2022-12-18T06:33:51;77.87;;;29.07;;
21258;SDS011;10787;53.364;-1.480;2022-12-18T06:36:17;134.33;;;30.30;;
21258;SDS011;10787;53.364;-1.480;2022-12-18T06:38:43;65.30;;;28.00;;
21258;SDS011;10787;53.364;-1.480;2022-12-18T06:41:13;67.10;;;27.30;;
21258;SDS011;10787;53.364;-1.480;2022-12-18T06:43:41;64.17;;;27.30;;
21258;SDS011;10787;53.364;-1.480;2022-12-18T06:46:07;64.47;;;27.43;;
21258;SDS011;10787;53.364;-1.480;2022-12-18T06:48:34;63.60;;;27.17;;
21258;SDS011;10787;53.364;-1.480;2022-12-18T06:51:00;103.53;;;29.97;;
21258;SDS011;10787;53.364;-1.480;2022-12-18T06:53:26;116.13;;;30.57;;
21258;SDS011;10787;53.364;-1.480;2022-12-18T06:55:59;79.30;;;29.27;;
21258;SDS011;10787;53.364;-1.480;2022-12-18T06:58:25;61.10;;;27.50;;
21258;SDS011;10787;53.364;-1.480;2022-12-18T07:00:52;62.47;;;26.97;;
21258;SDS011;10787;53.364;-1.480;2022-12-18T07:03:18;61.40;;;26.83;;
21258;SDS011;10787;53.364;-1.480;2022-12-18T07:05:43;62.53;;;28.00;;
21258;SDS011;10787;53.364;-1.480;2022-12-18T07:08:09;67.80;;;28.73;;
21258;SDS011;10787;53.364;-1.480;2022-12-18T07:10:42;65.17;;;28.80;;
21258;SDS011;10787;53.364;-1.480;2022-12-18T07:13:08;67.00;;;29.50;;
21258;SDS011;10787;53.364;-1.480;2022-12-18T07:15:34;64.20;;;28.17;;
21258;SDS011;10787;53.364;-1.480;2022-12-18T07:18:00;66.63;;;28.73;;
21258;SDS011;10787;53.364;-1.480;2022-12-18T07:20:27;68.43;;;28.63;;
21258;SDS011;10787;53.364;-1.480;2022-12-18T07:22:52;78.23;;;29.60;;
21258;SDS011;10787;53.364;-1.480;2022-12-18T07:25:19;72.17;;;29.10;;
21258;SDS011;10787;53.364;-1.480;2022-12-18T07:27:45;65.77;;;28.30;;
21258;SDS011;10787;53.364;-1.480;2022-12-18T07:30:11;76.00;;;31.20;;
21258;SDS011;10787;53.364;-1.480;2022-12-18T07:32:37;77.23;;;31.30;;
21258;SDS011;10787;53.364;-1.480;2022-12-18T07:35:04;69.17;;;30.10;;
21258;SDS011;10787;53.364;-1.480;2022-12-18T07:37:30;65.73;;;28.13;;
21258;SDS011;10787;53.364;-1.480;2022-12-18T07:39:55;72.07;;;28.10;;
21258;SDS011;10787;53.364;-1.480;2022-12-18T07:42:21;68.57;;;28.43;;
21258;SDS011;10787;53.364;-1.480;2022-12-18T07:44:56;72.33;;;28.43;;
21258;SDS011;10787;53.364;-1.480;2022-12-18T07:47:25;71.20;;;29.10;;
21258;SDS011;10787;53.364;-1.480;2022-12-18T07:49:51;67.37;;;28.80;;
21258;SDS011;10787;53.364;-1.480;2022-12-18T07:52:17;66.93;;;27.77;;
21258;SDS011;10787;53.364;-1.480;2022-12-18T07:54:43;72.07;;;28.20;;
21258;SDS011;10787;53.364;-1.480;2022-12-18T07:57:09;65.50;;;27.93;;
21258;SDS011;10787;53.364;-1.480;2022-12-18T07:59:36;67.97;;;28.10;;
21258;SDS011;10787;53.364;-1.480;2022-12-18T08:02:02;77.00;;;30.03;;
21258;SDS011;10787;53.364;-1.480;2022-12-18T08:04:28;69.30;;;28.10;;
21258;SDS011;10787;53.364;-1.480;2022-12-18T08:06:54;70.40;;;29.67;;
21258;SDS011;10787;53.364;-1.480;2022-12-18T08:09:20;69.17;;;28.27;;
21258;SDS011;10787;53.364;-1.480;2022-12-18T08:11:46;70.40;;;28.80;;
21258;SDS011;10787;53.364;-1.480;2022-12-18T08:14:12;77.93;;;28.63;;
21258;SDS011;10787;53.364;-1.480;2022-12-18T08:16:39;110.43;;;31.40;;
21258;SDS011;10787;53.364;-1.480;2022-12-18T08:19:05;73.07;;;27.37;;
21258;SDS011;10787;53.364;-1.480;2022-12-18T08:21:32;74.50;;;27.60;;
21258;SDS011;10787;53.364;-1.480;2022-12-18T08:23:59;63.93;;;26.70;;
21258;SDS011;10787;53.364;-1.480;2022-12-18T08:26:28;70.93;;;28.27;;
21258;SDS011;10787;53.364;-1.480;2022-12-18T08:28:55;63.77;;;25.77;;
21258;SDS011;10787;53.364;-1.480;2022-12-18T08:31:22;61.63;;;24.27;;
21258;SDS011;10787;53.364;-1.480;2022-12-18T08:33:49;64.73;;;26.00;;
21258;SDS011;10787;53.364;-1.480;2022-12-18T08:36:17;61.80;;;25.40;;
21258;SDS011;10787;53.364;-1.480;2022-12-18T08:38:43;65.80;;;25.27;;
21258;SDS011;10787;53.364;-1.480;2022-12-18T08:41:10;56.43;;;23.60;;
21258;SDS011;10787;53.364;-1.480;2022-12-18T08:43:37;62.27;;;24.93;;
21258;SDS011;10787;53.364;-1.480;2022-12-18T08:46:23;60.93;;;25.67;;
21258;SDS011;10787;53.364;-1.480;2022-12-18T08:48:50;65.10;;;26.77;;
21258;SDS011;10787;53.364;-1.480;2022-12-18T08:51:18;67.70;;;27.23;;
21258;SDS011;10787;53.364;-1.480;2022-12-18T08:53:45;65.07;;;25.33;;
21258;SDS011;10787;53.364;-1.480;2022-12-18T08:56:12;75.07;;;26.87;;
21258;SDS011;10787;53.364;-1.480;2022-12-18T08:58:39;64.60;;;26.07;;
21258;SDS011;10787;53.364;-1.480;2022-12-18T09:01:06;63.20;;;25.00;;
21258;SDS011;10787;53.364;-1.480;2022-12-18T09:03:34;60.53;;;24.30;;
21258;SDS011;10787;53.364;-1.480;2022-12-18T09:06:00;57.73;;;23.73;;
21258;SDS011;10787;53.364;-1.480;2022-12-18T09:08:27;57.10;;;22.87;;
21258;SDS011;10787;53.364;-1.480;2022-12-18T09:10:54;57.17;;;24.43;;
21258;SDS011;10787;53.364;-1.480;2022-12-18T09:13:20;58.33;;;23.67;;
21258;SDS011;10787;53.364;-1.480;2022-12-18T09:15:47;57.93;;;23.57;;
21258;SDS011;10787;53.364;-1.480;2022-12-18T09:18:15;62.60;;;24.43;;
21258;SDS011;10787;53.364;-1.480;2022-12-18T09:20:43;58.07;;;24.07;;
21258;SDS011;10787;53.364;-1.480;2022-12-18T09:23:08;60.90;;;23.23;;
21258;SDS011;10787;53.364;-1.480;2022-12-18T09:25:36;59.57;;;23.90;;
21258;SDS011;10787;53.364;-1.480;2022-12-18T09:28:03;55.10;;;22.90;;
21258;SDS011;10787;53.364;-1.480;2022-12-18T09:30:31;58.90;;;23.43;;
21258;SDS011;10787;53.364;-1.480;2022-12-18T09:32:59;59.00;;;24.40;;
21258;SDS011;10787;53.364;-1.480;2022-12-18T09:35:26;56.30;;;22.43;;
21258;SDS011;10787;53.364;-1.480;2022-12-18T09:37:53;55.27;;;23.47;;
21258;SDS011;10787;53.364;-1.480;2022-12-18T09:40:21;56.00;;;22.43;;
21258;SDS011;10787;53.364;-1.480;2022-12-18T09:42:55;54.93;;;22.20;;
21258;SDS011;10787;53.364;-1.480;2022-12-18T09:45:25;53.57;;;22.07;;
21258;SDS011;10787;53.364;-1.480;2022-12-18T09:47:52;54.10;;;22.50;;
21258;SDS011;10787;53.364;-1.480;2022-12-18T09:50:23;54.80;;;22.97;;
21258;SDS011;10787;53.364;-1.480;2022-12-18T09:53:10;52.20;;;21.40;;
21258;SDS011;10787;53.364;-1.480;2022-12-18T09:55:42;68.50;;;23.47;;
21258;SDS011;10787;53.364;-1.480;2022-12-18T09:58:31;46.37;;;20.33;;
21258;SDS011;10787;53.364;-1.480;2022-12-18T10:00:57;69.83;;;23.23;;
21258;SDS011;10787;53.364;-1.480;2022-12-18T10:03:23;55.20;;;22.70;;
21258;SDS011;10787;53.364;-1.480;2022-12-18T10:06:02;49.20;;;21.30;;
21258;SDS011;10787;53.364;-1.480;2022-12-18T10:11:47;75.07;;;21.87;;
21258;SDS011;10787;53.364;-1.480;2022-12-18T10:14:53;52.97;;;22.40;;
21258;SDS011;10787;53.364;-1.480;2022-12-18T10:20:13;47.90;;;19.93;;
21258;SDS011;10787;53.364;-1.480;2022-12-18T10:28:12;43.23;;;18.57;;
21258;SDS011;10787;53.364;-1.480;2022-12-18T10:30:42;41.33;;;18.53;;
21258;SDS011;10787;53.364;-1.480;2022-12-18T10:33:18;41.70;;;18.80;;
21258;SDS011;10787;53.364;-1.480;2022-12-18T10:35:47;40.03;;;18.23;;
21258;SDS011;10787;53.364;-1.480;2022-12-18T10:40:56;39.07;;;18.17;;
21258;SDS011;10787;53.364;-1.480;2022-12-18T10:43:33;40.93;;;19.07;;
21258;SDS011;10787;53.364;-1.480;2022-12-18T10:53:52;36.50;;;17.47;;
21258;SDS011;10787;53.364;-1.480;2022-12-18T10:56:41;38.90;;;17.93;;
21258;SDS011;10787;53.364;-1.480;2022-12-18T10:59:15;38.37;;;18.23;;
21258;SDS011;10787;53.364;-1.480;2022-12-18T11:04:22;38.30;;;18.50;;
21258;SDS011;10787;53.364;-1.480;2022-12-18T11:09:33;37.57;;;17.63;;
21258;SDS011;10787;53.364;-1.480;2022-12-18T11:12:02;46.17;;;18.90;;
21258;SDS011;10787;53.364;-1.480;2022-12-18T11:17:29;39.47;;;18.70;;
21258;SDS011;10787;53.364;-1.480;2022-12-18T11:20:07;37.07;;;18.63;;
21258;SDS011;10787;53.364;-1.480;2022-12-18T11:23:03;39.90;;;18.63;;
21258;SDS011;10787;53.364;-1.480;2022-12-18T11:25:32;40.10;;;18.23;;
21258;SDS011;10787;53.364;-1.480;2022-12-18T11:28:05;39.93;;;18.63;;
21258;SDS011;10787;53.364;-1.480;2022-12-18T11:31:36;37.50;;;17.63;;
21258;SDS011;10787;53.364;-1.480;2022-12-18T11:33:42;40.77;;;18.27;;
21258;SDS011;10787;53.364;-1.480;2022-12-18T11:36:12;58.60;;;29.33;;
21258;SDS011;10787;53.364;-1.480;2022-12-18T11:38:41;48.43;;;20.10;;
21258;SDS011;10787;53.364;-1.480;2022-12-18T11:41:26;40.33;;;19.07;;
21258;SDS011;10787;53.364;-1.480;2022-12-18T11:44:16;40.63;;;18.67;;
21258;SDS011;10787;53.364;-1.480;2022-12-18T11:47:33;39.73;;;18.33;;
21258;SDS011;10787;53.364;-1.480;2022-12-18T11:49:45;39.60;;;18.70;;
21258;SDS011;10787;53.364;-1.480;2022-12-18T11:52:24;44.07;;;20.73;;
21258;SDS011;10787;53.364;-1.480;2022-12-18T11:54:58;41.73;;;20.70;;
21258;SDS011;10787;53.364;-1.480;2022-12-18T12:08:23;40.10;;;19.30;;
21258;SDS011;10787;53.364;-1.480;2022-12-18T12:11:12;42.17;;;20.43;;
21258;SDS011;10787;53.364;-1.480;2022-12-18T12:22:29;38.17;;;19.20;;
21258;SDS011;10787;53.364;-1.480;2022-12-18T12:28:13;38.47;;;18.63;;
21258;SDS011;10787;53.364;-1.480;2022-12-18T12:30:58;39.13;;;19.17;;
21258;SDS011;10787;53.364;-1.480;2022-12-18T12:36:26;45.57;;;20.33;;
21258;SDS011;10787;53.364;-1.480;2022-12-18T12:38:56;43.57;;;20.20;;
21258;SDS011;10787;53.364;-1.480;2022-12-18T12:41:27;40.90;;;19.77;;
21258;SDS011;10787;53.364;-1.480;2022-12-18T12:44:19;39.57;;;18.80;;
21258;SDS011;10787;53.364;-1.480;2022-12-18T12:46:50;40.87;;;19.43;;
21258;SDS011;10787;53.364;-1.480;2022-12-18T12:49:21;48.20;;;19.80;;
21258;SDS011;10787;53.364;-1.480;2022-12-18T12:51:59;40.03;;;19.83;;
21258;SDS011;10787;53.364;-1.480;2022-12-18T12:54:45;40.53;;;19.53;;
21258;SDS011;10787;53.364;-1.480;2022-12-18T12:57:16;38.90;;;20.57;;
21258;SDS011;10787;53.364;-1.480;2022-12-18T13:02:23;39.93;;;20.23;;
21258;SDS011;10787;53.364;-1.480;2022-12-18T13:08:07;41.57;;;18.90;;
21258;SDS011;10787;53.364;-1.480;2022-12-18T13:10:46;49.00;;;21.30;;
21258;SDS011;10787;53.364;-1.480;2022-12-18T13:13:13;43.43;;;21.00;;
21258;SDS011;10787;53.364;-1.480;2022-12-18T13:15:44;47.53;;;21.07;;
21258;SDS011;10787;53.364;-1.480;2022-12-18T13:20:37;42.27;;;20.60;;
21258;SDS011;10787;53.364;-1.480;2022-12-18T13:23:28;52.17;;;21.63;;
21258;SDS011;10787;53.364;-1.480;2022-12-18T13:25:58;41.43;;;20.63;;
21258;SDS011;10787;53.364;-1.480;2022-12-18T13:31:14;44.13;;;21.40;;
21258;SDS011;10787;53.364;-1.480;2022-12-18T13:34:15;51.47;;;24.67;;
21258;SDS011;10787;53.364;-1.480;2022-12-18T13:36:41;43.47;;;21.30;;
21258;SDS011;10787;53.364;-1.480;2022-12-18T13:44:36;47.87;;;21.13;;
21258;SDS011;10787;53.364;-1.480;2022-12-18T13:47:05;49.17;;;21.93;;
21258;SDS011;10787;53.364;-1.480;2022-12-18T13:49:56;50.53;;;23.43;;
21258;SDS011;10787;53.364;-1.480;2022-12-18T13:52:25;49.93;;;22.13;;
21258;SDS011;10787;53.364;-1.480;2022-12-18T13:54:54;52.17;;;23.53;;
21258;SDS011;10787;53.364;-1.480;2022-12-18T13:59:56;49.43;;;22.10;;
21258;SDS011;10787;53.364;-1.480;2022-12-18T14:02:24;42.67;;;21.07;;
21258;SDS011;10787;53.364;-1.480;2022-12-18T14:04:52;47.00;;;21.60;;
21258;SDS011;10787;53.364;-1.480;2022-12-18T14:07:20;48.40;;;21.83;;
21258;SDS011;10787;53.364;-1.480;2022-12-18T14:09:57;51.40;;;23.30;;
21258;SDS011;10787;53.364;-1.480;2022-12-18T14:12:27;51.00;;;24.07;;
21258;SDS011;10787;53.364;-1.480;2022-12-18T14:17:52;52.90;;;24.10;;
21258;SDS011;10787;53.364;-1.480;2022-12-18T14:20:20;54.93;;;24.53;;
21258;SDS011;10787;53.364;-1.480;2022-12-18T14:22:47;58.70;;;25.33;;
21258;SDS011;10787;53.364;-1.480;2022-12-18T14:28:32;58.60;;;24.77;;
21258;SDS011;10787;53.364;-1.480;2022-12-18T14:30:44;58.27;;;26.93;;
21258;SDS011;10787;53.364;-1.480;2022-12-18T14:33:14;56.40;;;23.97;;
21258;SDS011;10787;53.364;-1.480;2022-12-18T14:35:53;51.20;;;22.83;;
21258;SDS011;10787;53.364;-1.480;2022-12-18T14:40:58;54.60;;;24.97;;
21258;SDS011;10787;53.364;-1.480;2022-12-18T14:43:27;61.10;;;24.80;;
21258;SDS011;10787;53.364;-1.480;2022-12-18T14:45:55;60.07;;;25.57;;
21258;SDS011;10787;53.364;-1.480;2022-12-18T14:48:24;55.63;;;25.03;;
21258;SDS011;10787;53.364;-1.480;2022-12-18T14:51:15;60.53;;;27.77;;
21258;SDS011;10787;53.364;-1.480;2022-12-18T14:53:48;61.93;;;25.37;;
21258;SDS011;10787;53.364;-1.480;2022-12-18T14:56:19;62.53;;;27.73;;
21258;SDS011;10787;53.364;-1.480;2022-12-18T15:04:02;57.20;;;24.80;;
21258;SDS011;10787;53.364;-1.480;2022-12-18T15:06:31;56.73;;;24.70;;
21258;SDS011;10787;53.364;-1.480;2022-12-18T15:09:18;74.27;;;30.20;;
21258;SDS011;10787;53.364;-1.480;2022-12-18T15:11:48;73.70;;;33.47;;
21258;SDS011;10787;53.364;-1.480;2022-12-18T15:14:23;57.77;;;27.20;;
21258;SDS011;10787;53.364;-1.480;2022-12-18T15:17:14;62.20;;;27.17;;
21258;SDS011;10787;53.364;-1.480;2022-12-18T15:19:48;67.60;;;30.10;;
21258;SDS011;10787;53.364;-1.480;2022-12-18T15:22:18;58.40;;;25.83;;
21258;SDS011;10787;53.364;-1.480;2022-12-18T15:24:44;60.37;;;26.57;;
21258;SDS011;10787;53.364;-1.480;2022-12-18T15:32:40;52.93;;;24.10;;
21258;SDS011;10787;53.364;-1.480;2022-12-18T15:35:22;60.73;;;24.43;;
21258;SDS011;10787;53.364;-1.480;2022-12-18T15:37:50;955.03;;;85.27;;
21258;SDS011;10787;53.364;-1.480;2022-12-18T15:40:18;73.73;;;26.27;;
21258;SDS011;10787;53.364;-1.480;2022-12-18T15:42:46;56.10;;;25.43;;
21258;SDS011;10787;53.364;-1.480;2022-12-18T15:45:31;53.13;;;24.87;;
21258;SDS011;10787;53.364;-1.480;2022-12-18T15:47:57;53.00;;;24.93;;
21258;SDS011;10787;53.364;-1.480;2022-12-18T15:50:24;54.53;;;26.20;;
21258;SDS011;10787;53.364;-1.480;2022-12-18T15:52:51;53.67;;;25.63;;
21258;SDS011;10787;53.364;-1.480;2022-12-18T15:55:19;54.17;;;25.63;;
21258;SDS011;10787;53.364;-1.480;2022-12-18T15:58:05;55.33;;;27.17;;
21258;SDS011;10787;53.364;-1.480;2022-12-18T16:00:32;60.67;;;27.50;;
21258;SDS011;10787;53.364;-1.480;2022-12-18T16:03:00;56.00;;;26.53;;
21258;SDS011;10787;53.364;-1.480;2022-12-18T16:05:27;54.50;;;25.10;;
21258;SDS011;10787;53.364;-1.480;2022-12-18T16:07:54;55.80;;;26.07;;
21258;SDS011;10787;53.364;-1.480;2022-12-18T16:10:20;52.47;;;25.73;;
21258;SDS011;10787;53.364;-1.480;2022-12-18T16:12:46;53.13;;;24.77;;
21258;SDS011;10787;53.364;-1.480;2022-12-18T16:15:13;50.27;;;24.70;;
21258;SDS011;10787;53.364;-1.480;2022-12-18T16:17:42;48.57;;;25.17;;
21258;SDS011;10787;53.364;-1.480;2022-12-18T16:20:15;45.30;;;22.07;;
21258;SDS011;10787;53.364;-1.480;2022-12-18T16:22:44;48.30;;;23.13;;